sensor_id;sensor_type;location;lat;lon;timestamp;pressure;altitude;pressure_sealevel;temperature;humidity
63568;BME280;49715;42.386;20.434;2022-11-15T00:00:55;97845.59;;;7.41;71.07
63568;BME280;49715;42.386;20.434;2022-11-15T00:03:40;97850.84;;;7.41;71.28
63568;BME280;49715;42.386;20.434;2022-11-15T00:06:25;97859.06;;;7.36;71.23
63568;BME280;49715;42.386;20.434;2022-11-15T00:09:10;97852.88;;;7.26;71.33
63568;BME280;49715;42.386;20.434;2022-11-15T00:11:56;97861.56;;;7.27;71.33
63568;BME280;49715;42.386;20.434;2022-11-15T00:14:42;97861.34;;;7.18;71.60
63568;BME280;49715;42.386;20.434;2022-11-15T00:17:26;97851.44;;;7.11;71.58
63568;BME280;49715;42.386;20.434;2022-11-15T00:20:11;97850.72;;;7.09;71.66
63568;BME280;49715;42.386;20.434;2022-11-15T00:22:56;97854.66;;;7.14;71.85
63568;BME280;49715;42.386;20.434;2022-11-15T00:25:41;97850.00;;;7.07;71.95
63568;BME280;49715;42.386;20.434;2022-11-15T00:28:26;97840.97;;;7.00;71.52
63568;BME280;49715;42.386;20.434;2022-11-15T00:31:12;97848.22;;;6.96;72.11
63568;BME280;49715;42.386;20.434;2022-11-15T00:33:58;97837.59;;;6.86;72.41
63568;BME280;49715;42.386;20.434;2022-11-15T00:36:42;97844.28;;;6.90;72.37
63568;BME280;49715;42.386;20.434;2022-11-15T00:39:27;97851.44;;;6.88;72.26
63568;BME280;49715;42.386;20.434;2022-11-15T00:42:12;97854.53;;;6.93;72.32
63568;BME280;49715;42.386;20.434;2022-11-15T00:44:56;97849.16;;;6.95;72.49
63568;BME280;49715;42.386;20.434;2022-11-15T00:47:44;97848.34;;;6.94;72.48
63568;BME280;49715;42.386;20.434;2022-11-15T00:50:30;97851.78;;;6.95;72.44
63568;BME280;49715;42.386;20.434;2022-11-15T00:53:16;97858.47;;;6.99;72.47
63568;BME280;49715;42.386;20.434;2022-11-15T00:56:01;97852.16;;;7.02;72.88
63568;BME280;49715;42.386;20.434;2022-11-15T00:58:46;97850.47;;;7.01;72.76
63568;BME280;49715;42.386;20.434;2022-11-15T01:01:31;97834.75;;;7.01;72.76
63568;BME280;49715;42.386;20.434;2022-11-15T01:04:16;97833.78;;;7.02;72.96
63568;BME280;49715;42.386;20.434;2022-11-15T01:07:00;97834.19;;;7.08;72.89
63568;BME280;49715;42.386;20.434;2022-11-15T01:09:45;97833.09;;;7.11;72.96
63568;BME280;49715;42.386;20.434;2022-11-15T01:12:30;97837.63;;;7.09;73.05
63568;BME280;49715;42.386;20.434;2022-11-15T01:15:16;97837.16;;;7.04;73.29
63568;BME280;49715;42.386;20.434;2022-11-15T01:18:01;97837.72;;;7.07;73.21
63568;BME280;49715;42.386;20.434;2022-11-15T01:20:46;97833.91;;;7.11;73.16
63568;BME280;49715;42.386;20.434;2022-11-15T01:23:31;97831.78;;;7.16;73.16
63568;BME280;49715;42.386;20.434;2022-11-15T01:26:16;97841.53;;;7.26;73.11
63568;BME280;49715;42.386;20.434;2022-11-15T01:29:01;97824.75;;;7.28;72.99
63568;BME280;49715;42.386;20.434;2022-11-15T01:31:46;97821.50;;;7.36;73.18
63568;BME280;49715;42.386;20.434;2022-11-15T01:34:30;97817.69;;;7.40;73.19
63568;BME280;49715;42.386;20.434;2022-11-15T01:37:15;97808.03;;;7.40;72.92
63568;BME280;49715;42.386;20.434;2022-11-15T01:40:00;97818.91;;;7.47;72.96
63568;BME280;49715;42.386;20.434;2022-11-15T01:42:45;97804.81;;;7.48;72.60
63568;BME280;49715;42.386;20.434;2022-11-15T01:45:30;97791.72;;;7.48;72.65
63568;BME280;49715;42.386;20.434;2022-11-15T01:48:15;97797.16;;;7.56;72.71
63568;BME280;49715;42.386;20.434;2022-11-15T01:51:03;97796.31;;;7.56;72.57
63568;BME280;49715;42.386;20.434;2022-11-15T01:53:54;97797.66;;;7.50;72.74
63568;BME280;49715;42.386;20.434;2022-11-15T01:56:44;97789.59;;;7.42;72.81
63568;BME280;49715;42.386;20.434;2022-11-15T01:59:31;97796.34;;;7.44;72.69
63568;BME280;49715;42.386;20.434;2022-11-15T02:02:16;97796.03;;;7.38;73.09
63568;BME280;49715;42.386;20.434;2022-11-15T02:05:00;97802.31;;;7.35;73.04
63568;BME280;49715;42.386;20.434;2022-11-15T02:07:45;97786.50;;;7.26;73.08
63568;BME280;49715;42.386;20.434;2022-11-15T02:10:32;97793.66;;;7.23;73.35
63568;BME280;49715;42.386;20.434;2022-11-15T02:13:17;97800.19;;;7.29;73.47
63568;BME280;49715;42.386;20.434;2022-11-15T02:16:34;97792.47;;;7.28;73.40
63568;BME280;49715;42.386;20.434;2022-11-15T02:25:37;97794.81;;;7.31;73.62
63568;BME280;49715;42.386;20.434;2022-11-15T02:31:45;97789.94;;;7.37;73.63
63568;BME280;49715;42.386;20.434;2022-11-15T02:37:56;97779.09;;;7.42;73.48
63568;BME280;49715;42.386;20.434;2022-11-15T02:47:07;97770.03;;;7.35;73.39
63568;BME280;49715;42.386;20.434;2022-11-15T02:50:10;97777.44;;;7.30;73.69
63568;BME280;49715;42.386;20.434;2022-11-15T02:52:55;97766.94;;;7.30;73.96
63568;BME280;49715;42.386;20.434;2022-11-15T02:55:58;97767.06;;;7.28;73.70
63568;BME280;49715;42.386;20.434;2022-11-15T02:58:56;97765.75;;;7.34;73.74
63568;BME280;49715;42.386;20.434;2022-11-15T03:11:09;97777.50;;;7.51;73.69
63568;BME280;49715;42.386;20.434;2022-11-15T03:14:02;97772.16;;;7.52;73.60
63568;BME280;49715;42.386;20.434;2022-11-15T03:17:26;97774.06;;;7.50;73.94
63568;BME280;49715;42.386;20.434;2022-11-15T03:20:15;97775.72;;;7.51;73.81
63568;BME280;49715;42.386;20.434;2022-11-15T03:23:05;97781.41;;;7.56;73.67
63568;BME280;49715;42.386;20.434;2022-11-15T03:25:52;97767.94;;;7.61;73.68
63568;BME280;49715;42.386;20.434;2022-11-15T03:28:46;97759.84;;;7.64;73.68
63568;BME280;49715;42.386;20.434;2022-11-15T03:31:37;97759.59;;;7.67;73.62
63568;BME280;49715;42.386;20.434;2022-11-15T03:34:49;97750.16;;;7.64;73.76
63568;BME280;49715;42.386;20.434;2022-11-15T03:40:40;97757.88;;;7.77;73.41
63568;BME280;49715;42.386;20.434;2022-11-15T03:43:44;97759.31;;;7.81;73.53
63568;BME280;49715;42.386;20.434;2022-11-15T03:46:34;97757.13;;;7.86;73.55
63568;BME280;49715;42.386;20.434;2022-11-15T03:49:28;97749.81;;;7.90;73.38
63568;BME280;49715;42.386;20.434;2022-11-15T03:52:17;97746.28;;;7.91;73.54
63568;BME280;49715;42.386;20.434;2022-11-15T03:55:05;97740.63;;;7.95;73.54
63568;BME280;49715;42.386;20.434;2022-11-15T03:57:54;97741.94;;;7.90;73.42
63568;BME280;49715;42.386;20.434;2022-11-15T04:00:41;97749.59;;;7.93;73.40
63568;BME280;49715;42.386;20.434;2022-11-15T04:03:26;97738.78;;;7.86;73.77
63568;BME280;49715;42.386;20.434;2022-11-15T04:06:11;97756.03;;;7.89;73.62
63568;BME280;49715;42.386;20.434;2022-11-15T04:08:56;97741.41;;;7.86;73.84
63568;BME280;49715;42.386;20.434;2022-11-15T04:11:40;97747.09;;;7.91;73.82
63568;BME280;49715;42.386;20.434;2022-11-15T04:14:25;97737.88;;;7.97;73.73
63568;BME280;49715;42.386;20.434;2022-11-15T04:17:10;97730.69;;;7.99;73.65
63568;BME280;49715;42.386;20.434;2022-11-15T04:19:55;97743.44;;;8.04;73.51
63568;BME280;49715;42.386;20.434;2022-11-15T04:23:00;97726.56;;;7.96;73.67
63568;BME280;49715;42.386;20.434;2022-11-15T04:26:07;97736.41;;;8.04;73.37
63568;BME280;49715;42.386;20.434;2022-11-15T04:28:54;97741.78;;;8.03;73.37
63568;BME280;49715;42.386;20.434;2022-11-15T04:32:04;97748.84;;;8.02;73.83
63568;BME280;49715;42.386;20.434;2022-11-15T04:34:49;97723.66;;;7.99;73.71
63568;BME280;49715;42.386;20.434;2022-11-15T04:37:34;97728.91;;;7.99;73.48
63568;BME280;49715;42.386;20.434;2022-11-15T04:40:19;97725.44;;;7.99;73.32
63568;BME280;49715;42.386;20.434;2022-11-15T04:43:04;97714.63;;;7.92;73.43
63568;BME280;49715;42.386;20.434;2022-11-15T04:45:49;97720.72;;;7.93;73.41
63568;BME280;49715;42.386;20.434;2022-11-15T04:48:33;97722.38;;;7.94;73.56
63568;BME280;49715;42.386;20.434;2022-11-15T04:51:19;97727.75;;;7.92;73.15
63568;BME280;49715;42.386;20.434;2022-11-15T04:54:04;97732.28;;;7.90;73.23
63568;BME280;49715;42.386;20.434;2022-11-15T04:56:48;97731.59;;;7.88;73.13
63568;BME280;49715;42.386;20.434;2022-11-15T04:59:33;97734.47;;;7.85;73.11
63568;BME280;49715;42.386;20.434;2022-11-15T05:02:18;97742.59;;;7.82;73.26
63568;BME280;49715;42.386;20.434;2022-11-15T05:05:03;97732.72;;;7.74;73.24
63568;BME280;49715;42.386;20.434;2022-11-15T05:07:48;97727.59;;;7.73;73.29
63568;BME280;49715;42.386;20.434;2022-11-15T05:10:33;97732.63;;;7.76;73.02
63568;BME280;49715;42.386;20.434;2022-11-15T05:13:18;97722.72;;;7.68;73.24
63568;BME280;49715;42.386;20.434;2022-11-15T05:16:03;97735.47;;;7.73;73.33
63568;BME280;49715;42.386;20.434;2022-11-15T05:18:53;97726.31;;;7.67;73.51
63568;BME280;49715;42.386;20.434;2022-11-15T05:21:38;97736.09;;;7.65;73.71
63568;BME280;49715;42.386;20.434;2022-11-15T05:24:23;97735.53;;;7.62;73.72
63568;BME280;49715;42.386;20.434;2022-11-15T05:27:09;97728.59;;;7.61;73.77
63568;BME280;49715;42.386;20.434;2022-11-15T05:29:55;97733.91;;;7.70;73.84
63568;BME280;49715;42.386;20.434;2022-11-15T05:32:39;97737.28;;;7.72;73.84
63568;BME280;49715;42.386;20.434;2022-11-15T05:35:39;97730.47;;;7.70;73.63
63568;BME280;49715;42.386;20.434;2022-11-15T05:38:25;97735.94;;;7.78;73.84
63568;BME280;49715;42.386;20.434;2022-11-15T05:41:11;97737.59;;;7.79;73.92
63568;BME280;49715;42.386;20.434;2022-11-15T05:43:58;97744.84;;;7.87;73.83
63568;BME280;49715;42.386;20.434;2022-11-15T05:46:44;97748.44;;;7.86;73.96
63568;BME280;49715;42.386;20.434;2022-11-15T05:49:31;97749.00;;;7.89;74.30
63568;BME280;49715;42.386;20.434;2022-11-15T05:52:25;97753.88;;;7.94;74.58
63568;BME280;49715;42.386;20.434;2022-11-15T05:55:13;97756.84;;;8.00;74.63
63568;BME280;49715;42.386;20.434;2022-11-15T05:58:00;97751.31;;;8.04;74.47
63568;BME280;49715;42.386;20.434;2022-11-15T06:00:45;97730.00;;;7.97;74.52
63568;BME280;49715;42.386;20.434;2022-11-15T06:03:30;97766.75;;;8.18;74.48
63568;BME280;49715;42.386;20.434;2022-11-15T06:06:15;97776.06;;;8.22;74.39
63568;BME280;49715;42.386;20.434;2022-11-15T06:09:01;97771.50;;;8.24;74.44
63568;BME280;49715;42.386;20.434;2022-11-15T06:11:46;97760.44;;;8.20;74.69
63568;BME280;49715;42.386;20.434;2022-11-15T06:14:31;97758.38;;;8.24;74.58
63568;BME280;49715;42.386;20.434;2022-11-15T06:17:16;97760.88;;;8.25;74.67
63568;BME280;49715;42.386;20.434;2022-11-15T06:20:01;97764.78;;;8.31;74.80
63568;BME280;49715;42.386;20.434;2022-11-15T06:22:46;97757.59;;;8.33;74.77
63568;BME280;49715;42.386;20.434;2022-11-15T06:25:31;97755.94;;;8.32;74.84
63568;BME280;49715;42.386;20.434;2022-11-15T06:28:16;97762.50;;;8.38;74.84
63568;BME280;49715;42.386;20.434;2022-11-15T06:31:05;97754.75;;;8.36;74.84
63568;BME280;49715;42.386;20.434;2022-11-15T06:33:51;97763.78;;;8.43;74.72
63568;BME280;49715;42.386;20.434;2022-11-15T06:36:35;97753.28;;;8.43;74.99
63568;BME280;49715;42.386;20.434;2022-11-15T06:39:22;97762.56;;;8.47;75.13
63568;BME280;49715;42.386;20.434;2022-11-15T06:42:08;97770.94;;;8.62;74.97
63568;BME280;49715;42.386;20.434;2022-11-15T06:44:53;97761.00;;;8.66;75.17
63568;BME280;49715;42.386;20.434;2022-11-15T06:47:46;97759.84;;;8.80;75.12
63568;BME280;49715;42.386;20.434;2022-11-15T06:50:32;97760.88;;;8.88;75.12
63568;BME280;49715;42.386;20.434;2022-11-15T06:53:18;97769.47;;;9.00;75.34
63568;BME280;49715;42.386;20.434;2022-11-15T06:56:05;97746.66;;;9.00;75.02
63568;BME280;49715;42.386;20.434;2022-11-15T06:58:55;97744.88;;;9.11;74.85
63568;BME280;49715;42.386;20.434;2022-11-15T07:01:43;97746.97;;;9.17;74.82
63568;BME280;49715;42.386;20.434;2022-11-15T07:04:32;97720.81;;;9.15;74.89
63568;BME280;49715;42.386;20.434;2022-11-15T07:07:17;97760.88;;;9.38;74.68
63568;BME280;49715;42.386;20.434;2022-11-15T07:10:06;97759.50;;;9.44;74.95
63568;BME280;49715;42.386;20.434;2022-11-15T07:12:55;97754.66;;;9.49;74.93
63568;BME280;49715;42.386;20.434;2022-11-15T07:15:41;97756.09;;;9.63;75.07
63568;BME280;49715;42.386;20.434;2022-11-15T07:18:27;97746.25;;;9.65;75.05
63568;BME280;49715;42.386;20.434;2022-11-15T07:21:15;97756.94;;;9.83;75.02
63568;BME280;49715;42.386;20.434;2022-11-15T07:23:59;97749.59;;;9.86;74.73
63568;BME280;49715;42.386;20.434;2022-11-15T07:26:45;97746.09;;;9.95;74.43
63568;BME280;49715;42.386;20.434;2022-11-15T07:29:30;97763.03;;;10.12;74.51
63568;BME280;49715;42.386;20.434;2022-11-15T07:32:15;97746.41;;;10.12;74.34
63568;BME280;49715;42.386;20.434;2022-11-15T07:35:06;97747.94;;;10.24;74.28
63568;BME280;49715;42.386;20.434;2022-11-15T07:37:59;97739.91;;;10.25;74.09
63568;BME280;49715;42.386;20.434;2022-11-15T07:40:46;97745.28;;;10.24;74.04
63568;BME280;49715;42.386;20.434;2022-11-15T07:43:35;97738.19;;;10.15;74.09
63568;BME280;49715;42.386;20.434;2022-11-15T07:46:23;97741.94;;;10.22;74.18
63568;BME280;49715;42.386;20.434;2022-11-15T07:49:09;97745.16;;;10.25;74.19
63568;BME280;49715;42.386;20.434;2022-11-15T07:51:58;97733.06;;;10.23;73.82
63568;BME280;49715;42.386;20.434;2022-11-15T07:54:44;97741.81;;;10.33;74.03
63568;BME280;49715;42.386;20.434;2022-11-15T07:57:29;97743.75;;;10.41;74.08
63568;BME280;49715;42.386;20.434;2022-11-15T08:00:16;97746.66;;;10.47;74.25
63568;BME280;49715;42.386;20.434;2022-11-15T08:03:06;97732.06;;;10.53;74.16
63568;BME280;49715;42.386;20.434;2022-11-15T08:05:52;97739.66;;;10.66;73.80
63568;BME280;49715;42.386;20.434;2022-11-15T08:08:37;97728.66;;;10.80;73.84
63568;BME280;49715;42.386;20.434;2022-11-15T08:11:25;97726.63;;;11.01;73.81
63568;BME280;49715;42.386;20.434;2022-11-15T08:14:32;97734.44;;;11.21;73.58
63568;BME280;49715;42.386;20.434;2022-11-15T08:17:18;97723.38;;;11.35;73.33
63568;BME280;49715;42.386;20.434;2022-11-15T08:20:03;97719.41;;;11.49;73.08
63568;BME280;49715;42.386;20.434;2022-11-15T08:22:48;97714.22;;;11.57;72.59
63568;BME280;49715;42.386;20.434;2022-11-15T08:25:34;97723.03;;;11.66;72.47
63568;BME280;49715;42.386;20.434;2022-11-15T08:28:20;97729.94;;;11.76;72.29
63568;BME280;49715;42.386;20.434;2022-11-15T08:31:05;97710.31;;;11.79;72.07
63568;BME280;49715;42.386;20.434;2022-11-15T08:33:51;97719.84;;;11.90;71.70
63568;BME280;49715;42.386;20.434;2022-11-15T08:36:36;97701.66;;;11.87;71.93
63568;BME280;49715;42.386;20.434;2022-11-15T08:39:24;97715.25;;;11.92;71.64
63568;BME280;49715;42.386;20.434;2022-11-15T08:42:11;97713.56;;;11.91;71.43
63568;BME280;49715;42.386;20.434;2022-11-15T08:45:00;97711.53;;;11.84;71.39
63568;BME280;49715;42.386;20.434;2022-11-15T08:47:45;97720.88;;;11.79;71.43
63568;BME280;49715;42.386;20.434;2022-11-15T08:50:31;97711.19;;;11.70;71.49
63568;BME280;49715;42.386;20.434;2022-11-15T08:53:16;97706.63;;;11.72;71.01
63568;BME280;49715;42.386;20.434;2022-11-15T08:56:02;97707.19;;;11.66;71.42
63568;BME280;49715;42.386;20.434;2022-11-15T08:58:47;97711.19;;;11.70;71.23
63568;BME280;49715;42.386;20.434;2022-11-15T09:01:34;97716.03;;;11.74;71.02
63568;BME280;49715;42.386;20.434;2022-11-15T09:04:21;97697.34;;;11.68;71.03
63568;BME280;49715;42.386;20.434;2022-11-15T09:07:06;97704.47;;;11.75;71.22
63568;BME280;49715;42.386;20.434;2022-11-15T09:09:51;97692.22;;;11.84;71.23
63568;BME280;49715;42.386;20.434;2022-11-15T09:12:36;97675.63;;;11.92;71.28
63568;BME280;49715;42.386;20.434;2022-11-15T09:15:25;97682.91;;;12.16;70.93
63568;BME280;49715;42.386;20.434;2022-11-15T09:18:11;97685.81;;;12.30;70.66
63568;BME280;49715;42.386;20.434;2022-11-15T09:20:57;97683.56;;;12.44;70.58
63568;BME280;49715;42.386;20.434;2022-11-15T09:23:49;97674.06;;;12.51;70.29
63568;BME280;49715;42.386;20.434;2022-11-15T09:26:35;97670.00;;;12.65;70.19
63568;BME280;49715;42.386;20.434;2022-11-15T09:29:21;97666.03;;;12.69;70.26
63568;BME280;49715;42.386;20.434;2022-11-15T09:32:15;97666.75;;;12.79;70.27
63568;BME280;49715;42.386;20.434;2022-11-15T09:35:01;97653.41;;;12.88;69.74
63568;BME280;49715;42.386;20.434;2022-11-15T09:37:46;97654.59;;;12.94;69.42
63568;BME280;49715;42.386;20.434;2022-11-15T09:40:36;97656.09;;;13.05;69.15
63568;BME280;49715;42.386;20.434;2022-11-15T09:46:32;97644.38;;;13.15;68.89
63568;BME280;49715;42.386;20.434;2022-11-15T09:49:36;97636.78;;;13.21;69.01
63568;BME280;49715;42.386;20.434;2022-11-15T09:52:35;97630.72;;;13.28;68.32
63568;BME280;49715;42.386;20.434;2022-11-15T09:55:14;97627.25;;;13.36;68.83
63568;BME280;49715;42.386;20.434;2022-11-15T09:58:10;97636.38;;;13.50;68.52
63568;BME280;49715;42.386;20.434;2022-11-15T10:00:44;97629.94;;;13.69;68.59
63568;BME280;49715;42.386;20.434;2022-11-15T10:03:18;97621.66;;;13.80;68.45
63568;BME280;49715;42.386;20.434;2022-11-15T10:06:23;97629.94;;;13.93;68.05
63568;BME280;49715;42.386;20.434;2022-11-15T10:12:38;97614.69;;;14.11;67.92
63568;BME280;49715;42.386;20.434;2022-11-15T10:15:42;97612.50;;;14.23;67.31
63568;BME280;49715;42.386;20.434;2022-11-15T10:21:20;97592.91;;;14.49;67.00
63568;BME280;49715;42.386;20.434;2022-11-15T10:23:47;97588.88;;;14.61;66.97
63568;BME280;49715;42.386;20.434;2022-11-15T10:26:18;97569.66;;;14.59;66.50
63568;BME280;49715;42.386;20.434;2022-11-15T10:28:44;97565.19;;;14.59;66.37
63568;BME280;49715;42.386;20.434;2022-11-15T10:31:21;97580.22;;;14.67;65.23
63568;BME280;49715;42.386;20.434;2022-11-15T10:34:13;97581.00;;;14.84;66.02
63568;BME280;49715;42.386;20.434;2022-11-15T10:36:58;97576.47;;;14.92;65.79
63568;BME280;49715;42.386;20.434;2022-11-15T10:39:25;97574.41;;;15.03;65.66
63568;BME280;49715;42.386;20.434;2022-11-15T10:42:26;97562.00;;;15.03;65.08
63568;BME280;49715;42.386;20.434;2022-11-15T10:44:53;97569.53;;;15.14;65.48
63568;BME280;49715;42.386;20.434;2022-11-15T10:50:00;97557.38;;;15.20;64.92
63568;BME280;49715;42.386;20.434;2022-11-15T10:52:49;97539.91;;;15.26;64.46
63568;BME280;49715;42.386;20.434;2022-11-15T10:55:33;97526.63;;;15.26;64.65
63568;BME280;49715;42.386;20.434;2022-11-15T11:01:28;97534.19;;;15.37;64.19
63568;BME280;49715;42.386;20.434;2022-11-15T11:04:06;97534.47;;;15.42;64.64
63568;BME280;49715;42.386;20.434;2022-11-15T11:10:22;97524.81;;;15.49;64.50
63568;BME280;49715;42.386;20.434;2022-11-15T11:12:55;97514.00;;;15.51;64.39
63568;BME280;49715;42.386;20.434;2022-11-15T11:15:29;97518.22;;;15.60;64.04
63568;BME280;49715;42.386;20.434;2022-11-15T11:18:21;97500.44;;;15.60;63.94
63568;BME280;49715;42.386;20.434;2022-11-15T11:24:34;97508.25;;;15.62;63.46
63568;BME280;49715;42.386;20.434;2022-11-15T11:27:32;97507.09;;;15.64;63.54
63568;BME280;49715;42.386;20.434;2022-11-15T11:30:10;97508.25;;;15.62;63.54
63568;BME280;49715;42.386;20.434;2022-11-15T11:33:26;97514.13;;;15.57;63.28
63568;BME280;49715;42.386;20.434;2022-11-15T11:36:02;97514.13;;;15.57;63.44
63568;BME280;49715;42.386;20.434;2022-11-15T11:38:50;97500.53;;;15.52;63.23
63568;BME280;49715;42.386;20.434;2022-11-15T11:45:22;97496.31;;;15.43;63.09
63568;BME280;49715;42.386;20.434;2022-11-15T11:50:37;97479.59;;;15.34;63.54
63568;BME280;49715;42.386;20.434;2022-11-15T11:53:12;97491.97;;;15.42;63.68
63568;BME280;49715;42.386;20.434;2022-11-15T11:56:29;97442.16;;;15.06;63.63
63568;BME280;49715;42.386;20.434;2022-11-15T12:02:41;97465.31;;;15.35;63.88
63568;BME280;49715;42.386;20.434;2022-11-15T12:05:26;97457.88;;;15.31;63.93
63568;BME280;49715;42.386;20.434;2022-11-15T12:08:27;97475.94;;;15.35;64.04
63568;BME280;49715;42.386;20.434;2022-11-15T12:14:08;97432.88;;;15.25;64.35
63568;BME280;49715;42.386;20.434;2022-11-15T12:16:42;97451.59;;;15.46;64.17
63568;BME280;49715;42.386;20.434;2022-11-15T12:19:09;97445.66;;;15.44;64.21
63568;BME280;49715;42.386;20.434;2022-11-15T12:21:48;97445.66;;;15.44;64.18
63568;BME280;49715;42.386;20.434;2022-11-15T12:24:27;97449.03;;;15.38;64.08
63568;BME280;49715;42.386;20.434;2022-11-15T12:30:43;97413.59;;;15.46;64.41
63568;BME280;49715;42.386;20.434;2022-11-15T12:36:08;97434.53;;;15.79;64.16
63568;BME280;49715;42.386;20.434;2022-11-15T12:38:53;97428.13;;;15.88;64.05
63568;BME280;49715;42.386;20.434;2022-11-15T12:41:27;97427.66;;;15.99;63.83
63568;BME280;49715;42.386;20.434;2022-11-15T12:43:58;97418.09;;;16.05;63.69
63568;BME280;49715;42.386;20.434;2022-11-15T12:49:08;97411.06;;;15.97;63.46
63568;BME280;49715;42.386;20.434;2022-11-15T12:54:56;97412.09;;;15.96;63.39
63568;BME280;49715;42.386;20.434;2022-11-15T12:57:34;97410.78;;;16.07;63.75
63568;BME280;49715;42.386;20.434;2022-11-15T13:06:49;97409.50;;;16.03;63.25
63568;BME280;49715;42.386;20.434;2022-11-15T13:14:59;97384.69;;;15.81;63.53
63568;BME280;49715;42.386;20.434;2022-11-15T13:17:36;97389.91;;;15.74;63.77
63568;BME280;49715;42.386;20.434;2022-11-15T13:28:17;97380.16;;;15.52;64.19
63568;BME280;49715;42.386;20.434;2022-11-15T13:33:48;97361.13;;;15.48;64.39
63568;BME280;49715;42.386;20.434;2022-11-15T13:36:24;97371.59;;;15.64;64.31
63568;BME280;49715;42.386;20.434;2022-11-15T13:39:04;97375.88;;;15.80;64.47
63568;BME280;49715;42.386;20.434;2022-11-15T13:41:34;97367.53;;;15.98;64.54
63568;BME280;49715;42.386;20.434;2022-11-15T13:44:02;97377.56;;;16.17;64.34
63568;BME280;49715;42.386;20.434;2022-11-15T13:46:33;97368.22;;;16.21;64.01
63568;BME280;49715;42.386;20.434;2022-11-15T13:49:04;97368.38;;;16.20;63.72
63568;BME280;49715;42.386;20.434;2022-11-15T13:51:45;97364.66;;;16.14;63.49
63568;BME280;49715;42.386;20.434;2022-11-15T13:56:44;97348.09;;;15.98;63.45
63568;BME280;49715;42.386;20.434;2022-11-15T13:59:23;97359.00;;;16.03;63.62
63568;BME280;49715;42.386;20.434;2022-11-15T14:01:53;97360.00;;;16.02;63.68
63568;BME280;49715;42.386;20.434;2022-11-15T14:04:22;97364.50;;;16.01;63.48
63568;BME280;49715;42.386;20.434;2022-11-15T14:06:54;97356.56;;;15.86;63.47
63568;BME280;49715;42.386;20.434;2022-11-15T14:09:38;97359.94;;;15.80;63.39
63568;BME280;49715;42.386;20.434;2022-11-15T14:12:32;97369.00;;;15.71;63.40
63568;BME280;49715;42.386;20.434;2022-11-15T14:15:18;97366.94;;;15.66;63.20
63568;BME280;49715;42.386;20.434;2022-11-15T14:17:45;97361.69;;;15.58;63.27
63568;BME280;49715;42.386;20.434;2022-11-15T14:22:58;97366.16;;;15.43;63.36
63568;BME280;49715;42.386;20.434;2022-11-15T14:25:28;97340.59;;;15.27;63.43
63568;BME280;49715;42.386;20.434;2022-11-15T14:28:16;97351.94;;;15.21;63.60
63568;BME280;49715;42.386;20.434;2022-11-15T14:30:57;97351.84;;;15.14;63.82
63568;BME280;49715;42.386;20.434;2022-11-15T14:36:20;97349.25;;;14.91;63.91
63568;BME280;49715;42.386;20.434;2022-11-15T14:38:48;97348.47;;;14.83;63.94
63568;BME280;49715;42.386;20.434;2022-11-15T14:43:42;97355.22;;;14.71;64.32
63568;BME280;49715;42.386;20.434;2022-11-15T14:46:08;97342.22;;;14.61;64.39
63568;BME280;49715;42.386;20.434;2022-11-15T14:48:35;97343.09;;;14.53;64.54
63568;BME280;49715;42.386;20.434;2022-11-15T14:51:11;97357.47;;;14.59;64.76
63568;BME280;49715;42.386;20.434;2022-11-15T14:53:38;97344.28;;;14.51;65.09
63568;BME280;49715;42.386;20.434;2022-11-15T14:56:05;97360.28;;;14.57;65.25
63568;BME280;49715;42.386;20.434;2022-11-15T14:58:31;97348.75;;;14.50;65.75
63568;BME280;49715;42.386;20.434;2022-11-15T15:00:59;97339.47;;;14.46;65.36
63568;BME280;49715;42.386;20.434;2022-11-15T15:03:26;97346.41;;;14.55;65.23
63568;BME280;49715;42.386;20.434;2022-11-15T15:05:54;97344.56;;;14.56;65.29
63568;BME280;49715;42.386;20.434;2022-11-15T15:08:22;97337.25;;;14.58;65.23
63568;BME280;49715;42.386;20.434;2022-11-15T15:10:52;97338.25;;;14.57;65.33
63568;BME280;49715;42.386;20.434;2022-11-15T15:13:23;97338.34;;;14.63;65.15
63568;BME280;49715;42.386;20.434;2022-11-15T15:15:52;97324.38;;;14.55;64.76
63568;BME280;49715;42.386;20.434;2022-11-15T15:18:19;97337.78;;;14.53;64.95
63568;BME280;49715;42.386;20.434;2022-11-15T15:20:53;97332.47;;;14.53;65.04
63568;BME280;49715;42.386;20.434;2022-11-15T15:23:22;97342.13;;;14.46;64.81
63568;BME280;49715;42.386;20.434;2022-11-15T15:25:50;97341.53;;;14.36;65.25
63568;BME280;49715;42.386;20.434;2022-11-15T15:28:18;97322.91;;;14.21;65.17
63568;BME280;49715;42.386;20.434;2022-11-15T15:30:46;97332.41;;;14.15;65.38
63568;BME280;49715;42.386;20.434;2022-11-15T15:33:13;97335.38;;;14.12;65.19
63568;BME280;49715;42.386;20.434;2022-11-15T15:35:41;97337.44;;;14.02;65.18
63568;BME280;49715;42.386;20.434;2022-11-15T15:38:28;97331.34;;;13.94;65.53
63568;BME280;49715;42.386;20.434;2022-11-15T15:40:54;97322.16;;;13.81;65.69
63568;BME280;49715;42.386;20.434;2022-11-15T15:43:23;97332.28;;;13.78;65.53
63568;BME280;49715;42.386;20.434;2022-11-15T15:45:49;97326.47;;;13.74;65.81
63568;BME280;49715;42.386;20.434;2022-11-15T15:48:17;97325.03;;;13.63;65.93
63568;BME280;49715;42.386;20.434;2022-11-15T15:50:44;97319.13;;;13.53;65.98
63568;BME280;49715;42.386;20.434;2022-11-15T15:53:13;97322.59;;;13.54;66.05
63568;BME280;49715;42.386;20.434;2022-11-15T15:55:43;97327.91;;;13.54;66.32
63568;BME280;49715;42.386;20.434;2022-11-15T15:58:13;97334.50;;;13.58;66.04
63568;BME280;49715;42.386;20.434;2022-11-15T16:00:48;97324.38;;;13.61;65.90
63568;BME280;49715;42.386;20.434;2022-11-15T16:03:15;97324.75;;;13.58;65.92
63568;BME280;49715;42.386;20.434;2022-11-15T16:05:41;97326.91;;;13.55;65.89
63568;BME280;49715;42.386;20.434;2022-11-15T16:08:28;97337.84;;;13.52;66.05
63568;BME280;49715;42.386;20.434;2022-11-15T16:10:58;97325.78;;;13.41;65.98
63568;BME280;49715;42.386;20.434;2022-11-15T16:13:29;97340.16;;;13.47;66.08